Time;durP1;ratioP1;P1;durP2;ratioP2;P2;SDS_P1;SDS_P2;PMS_P1;PMS_P2;Temp;Humidity;BMP_temperature;BMP_pressure;BME280_temperature;BME280_humidity;BME280_pressure;Samples;Min_cycle;Max_cycle;Signal;HPM_P1;HPM_P2
2024/01/25 00:01:08;;;;;;;2.10;1.17;;;17.70;70.70;;;;;;5036995;28;20041;-83
2024/01/25 00:03:34;;;;;;;1.17;1.10;;;17.70;70.80;;;;;;5026463;28;20519;-83
2024/01/25 00:06:00;;;;;;;2.70;1.20;;;17.70;71.60;;;;;;5008231;28;20562;-83
2024/01/25 00:08:25;;;;;;;1.33;1.23;;;17.70;70.80;;;;;;5062822;28;20077;-83
2024/01/25 00:10:51;;;;;;;1.40;1.10;;;17.70;70.80;;;;;;5026214;28;20126;-81
2024/01/25 00:13:16;;;;;;;1.00;0.77;;;17.70;70.90;;;;;;5027547;28;20060;-83
2024/01/25 00:15:42;;;;;;;2.45;1.13;;;17.60;70.90;;;;;;4992203;28;20514;-82
2024/01/25 00:18:07;;;;;;;1.02;1.00;;;17.60;71.00;;;;;;5004066;28;20057;-83
2024/01/25 00:20:33;;;;;;;1.50;1.40;;;17.60;71.10;;;;;;4999961;28;20893;-83
2024/01/25 00:22:58;;;;;;;1.20;1.10;;;17.60;71.10;;;;;;5004162;28;20109;-82
2024/01/25 00:25:24;;;;;;;1.15;1.05;;;17.60;71.10;;;;;;5003959;28;20045;-83
2024/01/25 00:27:50;;;;;;;1.00;1.00;;;17.60;71.10;;;;;;5012673;28;20625;-83
2024/01/25 00:30:15;;;;;;;1.10;1.00;;;17.60;71.20;;;;;;4983996;28;20138;-83
2024/01/25 00:32:41;;;;;;;0.90;0.90;;;17.50;71.20;;;;;;5020348;28;20092;-84
2024/01/25 00:35:09;;;;;;;1.17;0.90;;;17.50;71.20;;;;;;5026969;28;20041;-83
2024/01/25 00:37:36;;;;;;;2.35;1.50;;;17.50;71.30;;;;;;5018577;28;20044;-83
2024/01/25 00:40:02;;;;;;;1.00;0.90;;;17.50;71.40;;;;;;5008322;28;20046;-83
2024/01/25 00:42:28;;;;;;;1.60;1.15;;;17.50;71.40;;;;;;5023442;28;20056;-84
2024/01/25 00:44:54;;;;;;;1.48;1.00;;;17.50;71.40;;;;;;5000198;28;20046;-83
2024/01/25 00:47:21;;;;;;;1.13;1.10;;;17.50;71.50;;;;;;5026330;28;20519;-83
2024/01/25 00:49:47;;;;;;;1.10;1.00;;;17.50;71.50;;;;;;5022259;28;20045;-82
2024/01/25 00:52:12;;;;;;;1.08;0.98;;;17.40;71.50;;;;;;4993124;28;20132;-82
2024/01/25 00:54:38;;;;;;;1.33;1.23;;;17.40;71.50;;;;;;5017568;28;20526;-82
2024/01/25 00:57:04;;;;;;;1.20;0.90;;;17.40;71.50;;;;;;4987777;28;20107;-82
2024/01/25 00:59:30;;;;;;;1.35;1.08;;;17.40;71.60;;;;;;5008232;28;20415;-81
2024/01/25 01:01:56;;;;;;;1.33;1.00;;;17.40;72.30;;;;;;5005984;28;20125;-81
2024/01/25 01:04:22;;;;;;;2.22;0.90;;;17.40;71.60;;;;;;5009113;28;20076;-80
2024/01/25 01:06:47;;;;;;;3.10;1.02;;;17.40;71.60;;;;;;5022655;28;20121;-81
2024/01/25 01:09:13;;;;;;;0.82;0.82;;;17.40;71.70;;;;;;5048671;28;20045;-81
2024/01/25 01:11:39;;;;;;;0.95;0.82;;;17.40;71.80;;;;;;5056971;28;20048;-81
2024/01/25 01:14:04;;;;;;;1.35;1.10;;;17.30;71.70;;;;;;5008738;28;20057;-81
2024/01/25 01:16:32;;;;;;;1.25;1.15;;;17.30;71.80;;;;;;5023188;28;20499;-81
2024/01/25 01:19:05;;;;;;;0.85;0.85;;;17.30;71.80;;;;;;5007443;28;20060;-80
2024/01/25 01:21:30;;;;;;;1.02;0.93;;;17.30;71.80;;;;;;5045286;28;20049;-80
2024/01/25 01:23:56;;;;;;;0.98;0.88;;;17.30;71.80;;;;;;5005281;28;20045;-81
2024/01/25 01:26:21;;;;;;;1.23;1.13;;;17.30;71.80;;;;;;5026428;28;20132;-80
2024/01/25 01:28:47;;;;;;;3.55;1.00;;;17.30;71.80;;;;;;5013366;28;20041;-82
2024/01/25 01:31:13;;;;;;;0.80;0.80;;;17.30;71.80;;;;;;5023757;28;20041;-81
2024/01/25 01:33:38;;;;;;;2.00;0.68;;;17.20;71.80;;;;;;5014961;28;20049;-85
2024/01/25 01:36:04;;;;;;;1.20;1.10;;;17.20;71.90;;;;;;5005859;28;20054;-85
2024/01/25 01:38:30;;;;;;;0.80;0.80;;;17.20;71.80;;;;;;5018762;28;20053;-85
2024/01/25 01:40:55;;;;;;;1.00;0.68;;;17.20;71.90;;;;;;4987938;28;20100;-85
2024/01/25 01:43:23;;;;;;;0.77;0.70;;;17.20;71.90;;;;;;5001793;28;20069;-85
2024/01/25 01:45:49;;;;;;;2.53;1.13;;;17.20;71.90;;;;;;5023402;28;20037;-84
2024/01/25 01:48:15;;;;;;;1.02;0.70;;;17.20;72.00;;;;;;5005564;28;20411;-85
2024/01/25 01:50:40;;;;;;;1.27;0.80;;;17.20;72.10;;;;;;5023189;28;20049;-85
2024/01/25 01:53:06;;;;;;;1.08;1.00;;;17.20;72.10;;;;;;5024149;28;20041;-84
2024/01/25 01:55:32;;;;;;;1.13;0.88;;;17.20;72.00;;;;;;4998752;28;20452;-84
2024/01/25 01:57:57;;;;;;;0.80;0.80;;;17.20;72.00;;;;;;5021414;28;20044;-85
2024/01/25 02:00:23;;;;;;;0.75;0.75;;;17.20;72.10;;;;;;5023793;28;20055;-85
2024/01/25 02:02:48;;;;;;;1.15;0.93;;;17.20;72.10;;;;;;4989329;28;20073;-84
2024/01/25 02:05:14;;;;;;;0.80;0.80;;;17.20;72.10;;;;;;5024286;28;20040;-85
2024/01/25 02:07:40;;;;;;;0.82;0.68;;;17.10;72.00;;;;;;5006966;28;20145;-85
2024/01/25 02:10:07;;;;;;;0.77;0.75;;;17.20;72.10;;;;;;4991049;28;20507;-85
2024/01/25 02:12:32;;;;;;;0.98;0.45;;;17.10;72.00;;;;;;5015789;28;20073;-85
2024/01/25 02:14:58;;;;;;;0.98;0.70;;;17.10;72.00;;;;;;4988952;28;20062;-85
2024/01/25 02:17:23;;;;;;;1.10;0.80;;;17.10;72.00;;;;;;5022323;28;20049;-85
2024/01/25 02:19:49;;;;;;;1.10;0.77;;;17.10;72.00;;;;;;5020065;28;20560;-84
2024/01/25 02:22:17;;;;;;;0.80;0.80;;;17.10;72.00;;;;;;5016622;28;20077;-84
2024/01/25 02:24:43;;;;;;;1.02;0.80;;;17.10;72.00;;;;;;5000906;28;20038;-83
2024/01/25 02:27:08;;;;;;;1.02;0.73;;;17.10;72.00;;;;;;4999707;28;20538;-82
2024/01/25 02:29:34;;;;;;;1.15;0.82;;;17.10;72.00;;;;;;4987187;28;20053;-83
2024/01/25 02:31:59;;;;;;;1.10;1.00;;;17.10;72.00;;;;;;5005606;28;20044;-81
2024/01/25 02:34:25;;;;;;;0.93;0.70;;;17.10;72.00;;;;;;5000186;28;20053;-81
2024/01/25 02:36:51;;;;;;;1.17;0.77;;;17.10;72.00;;;;;;5005171;28;20029;-80
2024/01/25 02:39:16;;;;;;;1.10;0.88;;;17.10;72.00;;;;;;5015286;28;20449;-80
2024/01/25 02:41:42;;;;;;;0.63;0.60;;;17.10;72.00;;;;;;5014760;28;20539;-81
2024/01/25 02:44:08;;;;;;;0.80;0.77;;;17.10;72.00;;;;;;5023601;28;20466;-80
2024/01/25 02:46:33;;;;;;;1.38;0.73;;;17.10;72.00;;;;;;5020756;28;20063;-80
2024/01/25 02:48:59;;;;;;;1.05;0.80;;;17.10;72.00;;;;;;5032152;28;20037;-80
2024/01/25 02:51:24;;;;;;;0.68;0.65;;;17.10;72.00;;;;;;4986301;28;20038;-80
2024/01/25 02:53:50;;;;;;;0.80;0.80;;;17.10;72.30;;;;;;4992380;28;20038;-80
2024/01/25 02:56:16;;;;;;;0.50;0.50;;;17.10;72.00;;;;;;5023735;28;20048;-80
2024/01/25 02:58:41;;;;;;;0.70;0.60;;;17.10;72.00;;;;;;5020638;28;20675;-82
2024/01/25 03:01:07;;;;;;;0.80;0.80;;;17.10;72.00;;;;;;5019793;28;20435;-81
2024/01/25 03:03:32;;;;;;;0.98;0.80;;;17.00;71.90;;;;;;5002197;28;20046;-81
2024/01/25 03:05:58;;;;;;;0.85;0.80;;;17.00;71.90;;;;;;5006544;28;25214;-83
2024/01/25 03:08:23;;;;;;;0.68;0.68;;;17.00;72.00;;;;;;5024641;28;20053;-83
2024/01/25 03:10:49;;;;;;;0.80;0.80;;;17.00;71.90;;;;;;5024198;28;20079;-81
2024/01/25 03:13:16;;;;;;;1.38;0.77;;;17.00;71.90;;;;;;5024893;28;20041;-82
2024/01/25 03:15:42;;;;;;;1.90;0.52;;;17.00;71.90;;;;;;5005463;28;20490;-82
2024/01/25 03:18:08;;;;;;;1.40;0.75;;;17.00;71.90;;;;;;5011939;28;20472;-82
2024/01/25 03:20:33;;;;;;;1.00;0.90;;;17.00;71.90;;;;;;5024078;28;20052;-82
2024/01/25 03:22:59;;;;;;;0.82;0.70;;;17.00;71.90;;;;;;5036350;28;20404;-82
2024/01/25 03:25:24;;;;;;;1.17;0.80;;;17.00;71.90;;;;;;5011340;28;20046;-82
2024/01/25 03:27:50;;;;;;;0.90;0.73;;;17.00;71.90;;;;;;5012832;28;20125;-82
2024/01/25 03:30:15;;;;;;;0.90;0.75;;;17.00;72.00;;;;;;5013561;28;20069;-81
2024/01/25 03:32:41;;;;;;;0.70;0.50;;;16.90;71.90;;;;;;5005059;28;20045;-82
2024/01/25 03:35:07;;;;;;;1.60;1.00;;;17.00;71.90;;;;;;4989098;28;20038;-82
2024/01/25 03:37:32;;;;;;;1.10;0.80;;;17.00;71.90;;;;;;5001141;28;20104;-82
2024/01/25 03:39:58;;;;;;;1.17;0.68;;;17.00;71.90;;;;;;5020241;28;20044;-81
2024/01/25 03:42:24;;;;;;;0.82;0.75;;;17.00;71.90;;;;;;4990969;28;20053;-81
2024/01/25 03:44:49;;;;;;;1.10;0.50;;;16.90;71.90;;;;;;5021844;28;20584;-81
2024/01/25 03:47:15;;;;;;;1.10;0.85;;;16.90;71.90;;;;;;5022764;28;20045;-81
2024/01/25 03:49:40;;;;;;;0.73;0.73;;;16.90;71.90;;;;;;4991953;28;20038;-81
2024/01/25 03:52:06;;;;;;;0.70;0.70;;;16.90;71.90;;;;;;5022811;28;20041;-81
2024/01/25 03:54:31;;;;;;;0.98;0.75;;;16.90;71.90;;;;;;5011461;28;20041;-82
2024/01/25 03:56:57;;;;;;;0.88;0.80;;;16.90;71.90;;;;;;5021020;28;20056;-81
2024/01/25 03:59:23;;;;;;;0.60;0.60;;;16.90;71.90;;;;;;4993704;28;20041;-81
2024/01/25 04:01:49;;;;;;;0.90;0.68;;;16.90;71.90;;;;;;4999656;28;20053;-82
2024/01/25 04:04:18;;;;;;;0.50;0.50;;;16.90;71.90;;;;;;4998182;28;20504;-82
2024/01/25 04:06:45;;;;;;;0.77;0.60;;;16.90;71.90;;;;;;4990953;28;20046;-83
2024/01/25 04:09:11;;;;;;;0.75;0.70;;;16.90;71.90;;;;;;5008248;28;20054;-83
2024/01/25 04:11:37;;;;;;;0.40;0.40;;;16.90;71.90;;;;;;5007248;28;20042;-83
2024/01/25 04:14:02;;;;;;;0.68;0.47;;;16.90;71.90;;;;;;5024065;28;20056;-82
2024/01/25 04:16:28;;;;;;;1.13;0.40;;;16.90;71.90;;;;;;5025483;28;20049;-83
2024/01/25 04:18:54;;;;;;;0.73;0.60;;;16.90;71.90;;;;;;5024734;28;20037;-83
2024/01/25 04:21:19;;;;;;;1.02;0.60;;;16.90;71.90;;;;;;5046865;28;20072;-83
2024/01/25 04:23:45;;;;;;;0.50;0.50;;;16.90;71.90;;;;;;5043351;28;20404;-83
2024/01/25 04:26:10;;;;;;;0.50;0.50;;;16.80;71.80;;;;;;5028929;28;20037;-83
2024/01/25 04:28:36;;;;;;;0.73;0.40;;;16.90;71.90;;;;;;5058401;28;20044;-83
2024/01/25 04:31:04;;;;;;;0.65;0.50;;;16.90;71.90;;;;;;5036648;28;20083;-82
2024/01/25 04:33:30;;;;;;;1.20;0.70;;;16.80;71.80;;;;;;5010340;28;20045;-83
2024/01/25 04:35:55;;;;;;;0.57;0.55;;;16.80;71.80;;;;;;5008267;28;20060;-82
2024/01/25 04:38:21;;;;;;;0.63;0.50;;;16.80;71.80;;;;;;4990910;28;20053;-83
2024/01/25 04:40:47;;;;;;;0.50;0.50;;;16.80;71.80;;;;;;5021539;28;20054;-83
2024/01/25 04:43:13;;;;;;;0.60;0.50;;;16.80;71.80;;;;;;5017720;28;20184;-83
2024/01/25 04:45:39;;;;;;;0.40;0.40;;;16.80;71.80;;;;;;5007702;28;20118;-82
2024/01/25 04:48:05;;;;;;;0.90;0.52;;;16.80;71.80;;;;;;5006310;28;20041;-81
2024/01/25 04:50:31;;;;;;;0.70;0.40;;;16.80;71.80;;;;;;5027754;28;20068;-82
2024/01/25 04:52:56;;;;;;;0.55;0.50;;;16.80;71.80;;;;;;5015226;28;20042;-82
2024/01/25 04:55:22;;;;;;;0.70;0.40;;;16.80;71.80;;;;;;5026201;28;20128;-82
2024/01/25 04:57:49;;;;;;;0.80;0.50;;;16.80;71.80;;;;;;5021313;28;20053;-82
2024/01/25 05:00:16;;;;;;;0.88;0.40;;;16.80;71.80;;;;;;5033786;28;20045;-81
2024/01/25 05:02:42;;;;;;;0.60;0.60;;;16.80;71.70;;;;;;5023987;28;20632;-81
2024/01/25 05:05:07;;;;;;;0.38;0.32;;;16.80;71.70;;;;;;5023701;28;20132;-81
2024/01/25 05:07:33;;;;;;;0.50;0.40;;;16.80;71.70;;;;;;4991263;28;20045;-82
2024/01/25 05:09:58;;;;;;;0.80;0.60;;;16.80;71.70;;;;;;5005840;28;20041;-81
2024/01/25 05:12:24;;;;;;;0.50;0.50;;;16.80;71.70;;;;;;4989876;28;20124;-82
2024/01/25 05:14:49;;;;;;;0.40;0.40;;;16.80;71.70;;;;;;5008109;28;20065;-81
2024/01/25 05:17:15;;;;;;;0.40;0.40;;;16.80;71.70;;;;;;4988535;28;20045;-82
2024/01/25 05:19:41;;;;;;;0.40;0.38;;;16.80;71.70;;;;;;5006890;28;22239;-83
2024/01/25 05:22:07;;;;;;;1.38;0.68;;;16.80;71.70;;;;;;5014302;28;20033;-82
2024/01/25 05:24:33;;;;;;;1.05;0.65;;;16.80;71.70;;;;;;5017913;28;20046;-82
2024/01/25 05:26:59;;;;;;;0.50;0.50;;;16.70;71.60;;;;;;5024439;28;20096;-82
2024/01/25 05:29:24;;;;;;;0.40;0.40;;;16.70;71.70;;;;;;5004824;28;20097;-82
2024/01/25 05:31:50;;;;;;;0.60;0.40;;;16.70;71.60;;;;;;5018709;28;20435;-82
2024/01/25 05:34:15;;;;;;;0.60;0.60;;;16.70;71.60;;;;;;4993934;28;20056;-83
2024/01/25 05:36:41;;;;;;;0.60;0.40;;;16.70;71.70;;;;;;4995997;28;20050;-83
2024/01/25 05:39:07;;;;;;;0.38;0.38;;;16.70;71.70;;;;;;5022906;28;20601;-82
2024/01/25 05:41:33;;;;;;;0.50;0.40;;;16.70;71.70;;;;;;5025117;28;20054;-83
2024/01/25 05:43:59;;;;;;;0.68;0.40;;;16.70;71.70;;;;;;5007609;28;20034;-82
2024/01/25 05:46:25;;;;;;;0.60;0.40;;;16.70;71.70;;;;;;5008750;28;20038;-83
2024/01/25 05:48:50;;;;;;;0.88;0.38;;;16.70;71.70;;;;;;5022045;28;20541;-83
2024/01/25 05:51:16;;;;;;;0.47;0.40;;;16.70;72.50;;;;;;5012151;28;22522;-82
2024/01/25 05:53:42;;;;;;;0.52;0.40;;;16.70;71.70;;;;;;5005566;28;20045;-82
2024/01/25 05:56:07;;;;;;;0.52;0.40;;;16.70;71.70;;;;;;4999262;28;20131;-82
2024/01/25 05:58:33;;;;;;;0.90;0.20;;;16.70;71.80;;;;;;5021851;28;20045;-83
2024/01/25 06:00:58;;;;;;;0.70;0.35;;;16.70;71.70;;;;;;5048095;28;20037;-82
2024/01/25 06:03:24;;;;;;;0.50;0.30;;;16.70;71.70;;;;;;4997546;28;20176;-83
2024/01/25 06:05:50;;;;;;;0.47;0.43;;;16.70;71.70;;;;;;5025305;28;20029;-82
2024/01/25 06:08:15;;;;;;;0.50;0.30;;;16.70;71.70;;;;;;5025116;28;20416;-81
2024/01/25 06:10:41;;;;;;;0.45;0.45;;;16.60;71.70;;;;;;5023372;28;20073;-81
2024/01/25 06:13:06;;;;;;;0.43;0.30;;;16.70;71.70;;;;;;5011979;28;20554;-81
2024/01/25 06:15:32;;;;;;;0.55;0.32;;;16.70;71.70;;;;;;5014342;28;20411;-80
2024/01/25 06:17:57;;;;;;;0.30;0.30;;;16.70;71.70;;;;;;5018425;28;20385;-82
2024/01/25 06:20:23;;;;;;;0.30;0.20;;;16.70;71.70;;;;;;5021910;28;20580;-81
2024/01/25 06:22:49;;;;;;;0.40;0.30;;;16.60;71.70;;;;;;5024621;28;20515;-82
2024/01/25 06:25:14;;;;;;;0.40;0.30;;;16.70;71.70;;;;;;5022800;28;20030;-82
2024/01/25 06:27:40;;;;;;;0.38;0.38;;;16.70;71.70;;;;;;4989464;28;20041;-81
2024/01/25 06:30:06;;;;;;;0.65;0.40;;;16.60;71.70;;;;;;5022333;28;20037;-82
2024/01/25 06:32:32;;;;;;;0.55;0.45;;;16.60;71.70;;;;;;5022784;28;20045;-81
2024/01/25 06:34:57;;;;;;;0.50;0.40;;;16.60;71.70;;;;;;5014091;28;20032;-82
2024/01/25 06:37:23;;;;;;;0.40;0.30;;;16.60;71.70;;;;;;5023022;28;20583;-82
2024/01/25 06:39:48;;;;;;;0.75;0.40;;;16.70;71.70;;;;;;5021948;28;20392;-81
2024/01/25 06:42:14;;;;;;;0.40;0.30;;;16.60;71.70;;;;;;5017011;28;20071;-82
2024/01/25 06:44:39;;;;;;;0.32;0.30;;;16.60;71.70;;;;;;4987522;28;20027;-83
2024/01/25 06:47:05;;;;;;;1.55;0.40;;;16.60;71.70;;;;;;4990539;28;20105;-81
2024/01/25 06:49:31;;;;;;;0.50;0.25;;;16.60;71.70;;;;;;5011827;28;20078;-80
2024/01/25 06:51:57;;;;;;;0.40;0.40;;;16.60;71.70;;;;;;4968543;28;20041;-80
2024/01/25 06:54:22;;;;;;;0.60;0.57;;;16.70;72.00;;;;;;5004408;28;20085;-80
2024/01/25 06:56:48;;;;;;;0.55;0.20;;;16.70;72.20;;;;;;5000235;28;20035;-81
2024/01/25 06:59:13;;;;;;;0.52;0.30;;;16.70;72.20;;;;;;5006188;28;20407;-78
2024/01/25 07:01:39;;;;;;;0.75;0.40;;;16.70;72.50;;;;;;5013357;28;20211;-78
2024/01/25 07:04:04;;;;;;;0.50;0.20;;;16.60;73.30;;;;;;5021103;28;20045;-79
2024/01/25 07:06:30;;;;;;;0.55;0.47;;;16.70;74.20;;;;;;5025489;28;20041;-79
2024/01/25 07:08:56;;;;;;;0.50;0.40;;;16.60;74.50;;;;;;5007991;28;20053;-79
2024/01/25 07:11:21;;;;;;;0.32;0.32;;;16.70;75.10;;;;;;5038576;28;20488;-79
2024/01/25 07:13:47;;;;;;;0.50;0.40;;;16.70;75.40;;;;;;4988691;28;20185;-78
2024/01/25 07:16:12;;;;;;;1.20;0.40;;;16.70;75.90;;;;;;4983474;28;20053;-80
2024/01/25 07:18:38;;;;;;;0.70;0.32;;;16.70;76.10;;;;;;4993748;28;20050;-79
2024/01/25 07:21:04;;;;;;;0.47;0.40;;;16.70;76.20;;;;;;4983532;28;20049;-79
2024/01/25 07:23:30;;;;;;;0.40;0.40;;;16.70;76.10;;;;;;4997497;28;20057;-79
2024/01/25 07:25:55;;;;;;;0.50;0.40;;;16.60;76.00;;;;;;5026033;28;20085;-79
2024/01/25 07:28:21;;;;;;;0.60;0.32;;;16.60;76.00;;;;;;5022428;28;20077;-79
2024/01/25 07:30:49;;;;;;;0.50;0.40;;;16.60;76.40;;;;;;4993262;28;20090;-79
2024/01/25 07:33:15;;;;;;;0.50;0.40;;;16.60;76.50;;;;;;5022225;28;20046;-79
2024/01/25 07:35:45;;;;;;;0.93;0.55;;;16.50;77.30;;;;;;5003122;28;20127;-79
2024/01/25 07:38:11;;;;;;;1.00;0.40;;;16.60;77.20;;;;;;5011604;28;20136;-79
2024/01/25 07:40:37;;;;;;;0.88;0.40;;;16.60;77.60;;;;;;5011509;28;20044;-79
2024/01/25 07:43:02;;;;;;;2.40;0.50;;;16.60;77.40;;;;;;5007757;28;20045;-80
2024/01/25 07:45:28;;;;;;;0.70;0.50;;;16.60;77.30;;;;;;5009739;28;20099;-80
2024/01/25 07:47:54;;;;;;;0.70;0.47;;;16.60;77.60;;;;;;5008536;28;20057;-80
2024/01/25 07:50:19;;;;;;;0.40;0.40;;;16.60;77.50;;;;;;5027399;28;20041;-80
2024/01/25 07:52:46;;;;;;;0.45;0.45;;;16.60;77.30;;;;;;5024095;28;20404;-81
2024/01/25 07:55:11;;;;;;;0.50;0.32;;;16.50;77.20;;;;;;5023711;28;20427;-81
2024/01/25 07:57:37;;;;;;;0.45;0.30;;;16.60;77.40;;;;;;5024786;28;20045;-80
2024/01/25 08:00:04;;;;;;;0.65;0.43;;;16.60;77.30;;;;;;5039963;28;20132;-81
2024/01/25 08:02:29;;;;;;;0.70;0.50;;;16.60;77.50;;;;;;5045527;28;20511;-80
2024/01/25 08:04:57;;;;;;;1.02;0.50;;;16.50;78.40;;;;;;5010169;28;20068;-81
2024/01/25 08:07:22;;;;;;;0.85;0.50;;;16.60;77.60;;;;;;5023516;28;20036;-81
2024/01/25 08:09:51;;;;;;;0.35;0.30;;;16.60;77.70;;;;;;5026357;28;20030;-81
2024/01/25 08:12:17;;;;;;;0.70;0.30;;;16.50;77.70;;;;;;5021958;28;20026;-81
2024/01/25 08:14:43;;;;;;;0.60;0.40;;;16.50;77.80;;;;;;5007791;28;20049;-81
2024/01/25 08:17:09;;;;;;;0.43;0.40;;;16.50;77.80;;;;;;5027557;28;20030;-80
2024/01/25 08:19:35;;;;;;;1.95;0.60;;;16.50;77.80;;;;;;5022830;28;20094;-80
2024/01/25 08:22:01;;;;;;;0.50;0.35;;;16.50;77.80;;;;;;5022669;28;20033;-80
2024/01/25 08:24:26;;;;;;;0.38;0.30;;;16.50;77.90;;;;;;5027534;28;20053;-81
2024/01/25 08:26:52;;;;;;;0.40;0.30;;;16.50;77.90;;;;;;5026718;28;20076;-81
2024/01/25 08:29:17;;;;;;;0.77;0.50;;;16.50;78.10;;;;;;5047040;28;20037;-80
2024/01/25 08:31:43;;;;;;;0.73;0.50;;;16.50;78.10;;;;;;5010029;28;20076;-81
2024/01/25 08:34:08;;;;;;;0.82;0.40;;;16.50;78.20;;;;;;5008914;28;20045;-81
2024/01/25 08:36:34;;;;;;;0.55;0.55;;;16.50;78.20;;;;;;5021447;28;20045;-81
2024/01/25 08:39:00;;;;;;;0.43;0.40;;;16.50;78.30;;;;;;5023820;28;20611;-81
2024/01/25 08:41:25;;;;;;;3.63;0.60;;;16.50;78.40;;;;;;5048611;28;20443;-81
2024/01/25 08:43:51;;;;;;;0.57;0.50;;;16.50;79.00;;;;;;5010080;28;20407;-81
2024/01/25 08:46:16;;;;;;;2.63;0.73;;;16.50;79.40;;;;;;5004371;28;20029;-81
2024/01/25 08:48:42;;;;;;;0.43;0.40;;;16.50;78.50;;;;;;5003609;28;20172;-81
2024/01/25 08:51:08;;;;;;;1.20;0.40;;;16.40;78.40;;;;;;5002693;28;20175;-80
2024/01/25 08:53:34;;;;;;;0.60;0.50;;;16.50;78.60;;;;;;5027379;28;20572;-81
2024/01/25 08:55:59;;;;;;;0.52;0.30;;;16.50;78.80;;;;;;5025129;28;20042;-81
2024/01/25 08:58:25;;;;;;;0.47;0.30;;;16.50;78.70;;;;;;5023212;28;20052;-81
2024/01/25 09:00:51;;;;;;;0.55;0.50;;;16.40;78.70;;;;;;5023285;28;20083;-81
2024/01/25 09:03:16;;;;;;;0.70;0.50;;;16.40;78.60;;;;;;5023456;28;20055;-81
2024/01/25 09:05:44;;;;;;;2.53;0.40;;;16.40;78.70;;;;;;5010395;28;20426;-81
2024/01/25 09:08:14;;;;;;;0.50;0.50;;;16.40;78.60;;;;;;5057387;28;20052;-81
2024/01/25 09:10:44;;;;;;;0.40;0.40;;;16.40;78.80;;;;;;5022389;28;20052;-81
2024/01/25 09:13:09;;;;;;;0.60;0.40;;;16.40;78.90;;;;;;5022131;28;20179;-80
2024/01/25 09:15:35;;;;;;;0.50;0.40;;;16.50;78.90;;;;;;5021169;28;20128;-81
2024/01/25 09:18:00;;;;;;;0.50;0.50;;;16.40;78.80;;;;;;5023529;28;20057;-80
2024/01/25 09:20:26;;;;;;;1.52;0.40;;;16.40;78.80;;;;;;5041491;28;20041;-81
2024/01/25 09:22:55;;;;;;;1.40;0.40;;;16.40;79.70;;;;;;5026084;28;20408;-81
2024/01/25 09:25:20;;;;;;;0.40;0.40;;;16.40;79.00;;;;;;5022321;28;20069;-81
2024/01/25 09:27:46;;;;;;;1.58;0.40;;;16.40;79.00;;;;;;5023411;28;20049;-81
2024/01/25 09:30:12;;;;;;;0.30;0.30;;;16.40;78.90;;;;;;5022669;28;20029;-80
2024/01/25 09:32:37;;;;;;;0.80;0.40;;;16.40;78.90;;;;;;5025925;28;20042;-80
2024/01/25 09:35:03;;;;;;;0.50;0.50;;;16.40;79.00;;;;;;5024522;28;20432;-80
2024/01/25 09:37:29;;;;;;;0.75;0.50;;;16.40;78.90;;;;;;5020231;28;20075;-80
2024/01/25 09:39:54;;;;;;;1.55;0.40;;;16.40;79.00;;;;;;5024946;28;20067;-81
2024/01/25 09:42:20;;;;;;;1.75;0.30;;;16.40;78.90;;;;;;5023772;28;20179;-80
2024/01/25 09:44:45;;;;;;;0.50;0.40;;;16.40;79.00;;;;;;5021106;28;20029;-80
2024/01/25 09:47:11;;;;;;;1.10;0.40;;;16.40;79.10;;;;;;5018374;28;20116;-80
2024/01/25 09:49:37;;;;;;;1.00;0.30;;;16.40;79.00;;;;;;5023789;28;20034;-80
2024/01/25 09:52:06;;;;;;;0.30;0.30;;;16.40;79.10;;;;;;5025377;28;20495;-80
2024/01/25 09:54:33;;;;;;;0.38;0.30;;;16.40;79.10;;;;;;5023450;28;20073;-80
2024/01/25 09:56:59;;;;;;;0.35;0.35;;;16.40;79.20;;;;;;5024642;28;20022;-80
2024/01/25 09:59:25;;;;;;;0.75;0.50;;;16.40;79.10;;;;;;5026727;28;20094;-80
2024/01/25 10:01:50;;;;;;;0.47;0.30;;;16.40;79.40;;;;;;5024994;28;20068;-80
2024/01/25 10:04:19;;;;;;;0.52;0.40;;;16.40;79.10;;;;;;5020794;28;20528;-81
2024/01/25 10:06:44;;;;;;;0.43;0.43;;;16.40;79.10;;;;;;5025179;28;20069;-80
2024/01/25 10:09:10;;;;;;;0.88;0.50;;;16.40;79.20;;;;;;5021836;28;20143;-80
2024/01/25 10:11:37;;;;;;;1.75;0.43;;;16.40;79.10;;;;;;5025147;28;20042;-81
2024/01/25 10:14:03;;;;;;;0.38;0.38;;;16.40;79.90;;;;;;5035740;28;20503;-80
2024/01/25 10:16:29;;;;;;;0.40;0.40;;;16.40;79.20;;;;;;5021264;28;20049;-80
2024/01/25 10:18:54;;;;;;;1.23;0.50;;;16.40;79.30;;;;;;4992147;28;20068;-81
2024/01/25 10:21:21;;;;;;;0.40;0.40;;;16.40;79.20;;;;;;5012833;28;20428;-80
2024/01/25 10:23:47;;;;;;;0.32;0.32;;;16.40;79.20;;;;;;5040267;28;20034;-81
2024/01/25 10:26:12;;;;;;;2.35;0.50;;;16.30;79.20;;;;;;5056627;28;20186;-80
2024/01/25 10:28:38;;;;;;;0.85;0.30;;;16.40;79.10;;;;;;5006450;28;20053;-80
2024/01/25 10:31:04;;;;;;;0.25;0.25;;;16.40;79.10;;;;;;5020814;28;20529;-81
2024/01/25 10:33:30;;;;;;;1.05;0.40;;;16.40;79.20;;;;;;5005798;28;20611;-81
2024/01/25 10:36:01;;;;;;;0.30;0.30;;;16.40;79.20;;;;;;5020716;28;20148;-80
2024/01/25 10:38:28;;;;;;;1.90;0.63;;;16.40;79.20;;;;;;5023712;28;20133;-80
2024/01/25 10:40:54;;;;;;;0.73;0.50;;;16.40;79.20;;;;;;5022574;28;20046;-80
2024/01/25 10:43:19;;;;;;;0.68;0.40;;;16.40;79.20;;;;;;5006202;28;20406;-81
2024/01/25 10:45:45;;;;;;;1.33;0.30;;;16.40;80.00;;;;;;4991967;28;20124;-80
2024/01/25 10:48:11;;;;;;;0.40;0.30;;;16.30;79.10;;;;;;4998647;28;20046;-81
2024/01/25 10:50:36;;;;;;;0.73;0.50;;;16.40;79.20;;;;;;5023237;28;20120;-80
2024/01/25 10:53:02;;;;;;;0.22;0.22;;;16.40;80.00;;;;;;5024643;28;20111;-81
2024/01/25 10:55:28;;;;;;;0.50;0.50;;;16.40;79.20;;;;;;5005713;28;20511;-80
2024/01/25 10:57:53;;;;;;;0.40;0.40;;;16.40;79.20;;;;;;5000204;28;20042;-80
2024/01/25 11:00:19;;;;;;;0.47;0.47;;;16.40;79.20;;;;;;5043394;28;20039;-81
2024/01/25 11:02:45;;;;;;;0.30;0.30;;;16.40;79.20;;;;;;5005122;28;20037;-81
2024/01/25 11:05:14;;;;;;;0.50;0.30;;;16.40;79.40;;;;;;5022736;28;20042;-81
2024/01/25 11:07:47;;;;;;;0.35;0.35;;;16.40;79.20;;;;;;4998431;28;20538;-81
2024/01/25 11:10:20;;;;;;;0.50;0.40;;;16.40;79.20;;;;;;5022673;28;20049;-81
2024/01/25 11:13:03;;;;;;;0.35;0.30;;;16.40;79.20;;;;;;5020709;28;20515;-81
2024/01/25 11:15:32;;;;;;;0.30;0.30;;;16.40;79.10;;;;;;5023048;28;20142;-80
2024/01/25 11:17:57;;;;;;;0.32;0.30;;;16.40;79.10;;;;;;5019314;28;20520;-80
2024/01/25 11:20:24;;;;;;;0.35;0.35;;;16.40;79.20;;;;;;5022923;28;20060;-80
2024/01/25 11:23:20;;;;;;;0.35;0.35;;;16.30;79.00;;;;;;5022164;28;20087;-80
2024/01/25 11:25:47;;;;;;;0.38;0.32;;;16.40;79.20;;;;;;5017111;28;20049;-81
2024/01/25 11:28:14;;;;;;;0.40;0.30;;;16.40;79.10;;;;;;5015874;28;20049;-81
2024/01/25 11:30:39;;;;;;;0.40;0.40;;;16.40;79.10;;;;;;5009368;28;20046;-80
2024/01/25 11:33:09;;;;;;;0.43;0.40;;;16.40;79.20;;;;;;5017273;28;20111;-81
2024/01/25 11:35:35;;;;;;;0.30;0.30;;;16.40;79.20;;;;;;5021136;28;20060;-80
2024/01/25 11:38:01;;;;;;;0.30;0.30;;;16.40;79.20;;;;;;5022939;28;20499;-80
2024/01/25 11:40:28;;;;;;;0.75;0.40;;;16.40;79.20;;;;;;5020842;28;20396;-80
2024/01/25 11:42:53;;;;;;;0.30;0.30;;;16.40;79.20;;;;;;5023524;28;20038;-81
2024/01/25 11:45:19;;;;;;;0.50;0.40;;;16.40;79.20;;;;;;5021214;28;20038;-81
2024/01/25 11:47:45;;;;;;;0.40;0.40;;;16.40;79.10;;;;;;5022256;28;20057;-81
2024/01/25 11:50:11;;;;;;;0.80;0.40;;;16.40;79.10;;;;;;5051919;28;20104;-81
2024/01/25 11:52:37;;;;;;;0.55;0.40;;;16.40;79.10;;;;;;5016775;28;20127;-81
2024/01/25 11:55:03;;;;;;;0.40;0.30;;;16.30;79.20;;;;;;4992197;28;20499;-81
2024/01/25 11:57:30;;;;;;;0.63;0.40;;;16.40;79.20;;;;;;5002918;28;20056;-81
2024/01/25 11:59:55;;;;;;;0.50;0.43;;;16.30;79.10;;;;;;5002894;28;20062;-81
2024/01/25 12:02:21;;;;;;;0.32;0.32;;;16.30;79.20;;;;;;5023883;28;20072;-80
2024/01/25 12:04:47;;;;;;;0.40;0.40;;;16.30;79.20;;;;;;5039235;28;20060;-80
2024/01/25 12:07:13;;;;;;;0.47;0.25;;;16.30;79.20;;;;;;5013618;28;20038;-81
2024/01/25 12:09:38;;;;;;;1.33;0.25;;;16.30;79.30;;;;;;5021232;28;20048;-80
2024/01/25 12:12:05;;;;;;;0.40;0.40;;;16.30;79.30;;;;;;5027235;28;20095;-80
2024/01/25 12:14:30;;;;;;;0.20;0.20;;;16.30;79.40;;;;;;5024427;28;20057;-81
2024/01/25 12:16:56;;;;;;;0.30;0.20;;;16.30;79.40;;;;;;5023928;28;20403;-80
2024/01/25 12:19:21;;;;;;;0.43;0.40;;;16.40;79.40;;;;;;5022991;28;20099;-80
2024/01/25 12:21:47;;;;;;;0.20;0.20;;;16.30;79.30;;;;;;5026361;28;20053;-80
2024/01/25 12:24:13;;;;;;;0.40;0.40;;;16.30;79.30;;;;;;5023997;28;20037;-81
2024/01/25 12:26:38;;;;;;;0.40;0.30;;;16.30;79.30;;;;;;5026091;28;20057;-81
2024/01/25 12:29:04;;;;;;;0.40;0.40;;;16.40;79.40;;;;;;5023480;28;20590;-81
2024/01/25 12:31:30;;;;;;;0.35;0.35;;;16.30;79.40;;;;;;4670433;28;10000450;-80
2024/01/25 12:33:56;;;;;;;0.40;0.40;;;16.30;79.40;;;;;;5003749;28;20095;-78
2024/01/25 12:36:21;;;;;;;0.45;0.40;;;16.30;80.30;;;;;;5021492;28;20042;-78
2024/01/25 12:38:48;;;;;;;0.47;0.40;;;16.40;79.50;;;;;;5021664;28;20099;-77